createdAt,value
2023-02-09T00:00:39.130Z,80.05
2023-02-09T00:01:39.163Z,80.05
2023-02-09T00:02:39.103Z,80.16
2023-02-09T00:03:39.097Z,80.16
2023-02-09T00:04:39.098Z,80.16
2023-02-09T00:05:39.065Z,80.16
2023-02-09T00:06:39.041Z,80.16
2023-02-09T00:07:39.059Z,80.27
2023-02-09T00:08:39.025Z,80.27
2023-02-09T00:09:39.020Z,80.27
2023-02-09T00:10:38.990Z,80.27
2023-02-09T00:11:38.997Z,80.27
2023-02-09T00:12:38.979Z,80.27
2023-02-09T00:13:38.996Z,80.27
2023-02-09T00:14:38.951Z,80.27
2023-02-09T00:15:39.020Z,80.27
2023-02-09T00:16:38.969Z,80.27
2023-02-09T00:17:38.907Z,80.27
2023-02-09T00:18:38.907Z,80.27
2023-02-09T00:19:38.907Z,80.27
2023-02-09T00:20:38.866Z,80.27
2023-02-09T00:21:38.857Z,80.27
2023-02-09T00:22:38.849Z,80.27
2023-02-09T00:23:38.877Z,80.27
2023-02-09T00:24:38.827Z,80.16
2023-02-09T00:25:38.828Z,80.27
2023-02-09T00:26:38.808Z,80.16
2023-02-09T00:27:38.787Z,80.16
2023-02-09T00:28:38.788Z,80.16
2023-02-09T00:29:38.784Z,80.16
2023-02-09T00:30:38.851Z,80.16
2023-02-09T00:31:38.753Z,80.05
2023-02-09T00:32:38.732Z,80.05
2023-02-09T00:33:38.732Z,80.05
2023-02-09T00:34:38.701Z,80.05
2023-02-09T00:35:38.693Z,80.05
2023-02-09T00:36:38.706Z,80.05
2023-02-09T00:37:38.676Z,79.95
2023-02-09T00:38:38.666Z,79.99
2023-02-09T00:39:38.641Z,79.99
2023-02-09T00:40:38.622Z,79.99
2023-02-09T00:41:38.622Z,79.99
2023-02-09T00:42:38.601Z,79.99
2023-02-09T00:43:38.610Z,79.99
2023-02-09T00:44:38.599Z,79.99
2023-02-09T00:45:38.642Z,79.99
2023-02-09T00:46:38.548Z,80.09
2023-02-09T00:47:38.547Z,80.09
2023-02-09T00:48:38.537Z,80.09
2023-02-09T00:49:38.524Z,80.19
2023-02-09T00:50:38.522Z,80.09
2023-02-09T00:51:38.505Z,80.09
2023-02-09T00:52:38.502Z,80.09
2023-02-09T00:53:38.486Z,80.09
2023-02-09T00:54:38.465Z,80.19
2023-02-09T00:55:38.457Z,80.19
2023-02-09T00:56:38.443Z,80.19
2023-02-09T00:57:38.417Z,80.19
2023-02-09T00:58:38.414Z,80.19
2023-02-09T00:59:38.402Z,80.19
2023-02-09T01:00:38.382Z,80.30
2023-02-09T01:01:38.459Z,80.30
2023-02-09T01:02:38.372Z,80.33
2023-02-09T01:03:38.389Z,80.23
2023-02-09T01:04:38.377Z,80.23
2023-02-09T01:05:38.354Z,80.23
2023-02-09T01:06:38.320Z,80.23
2023-02-09T01:07:38.329Z,80.23
2023-02-09T01:08:38.303Z,80.33
2023-02-09T01:09:38.281Z,80.33
2023-02-09T01:10:38.315Z,80.33
2023-02-09T01:11:38.256Z,80.23
2023-02-09T01:12:38.236Z,80.33
2023-02-09T01:13:38.234Z,80.33
2023-02-09T01:14:38.195Z,80.33
2023-02-09T01:15:38.194Z,80.33
2023-02-09T01:16:38.178Z,80.23
2023-02-09T01:17:38.164Z,80.13
2023-02-09T01:18:38.168Z,80.13
2023-02-09T01:19:38.152Z,80.13
2023-02-09T01:20:38.143Z,80.13
2023-02-09T01:21:38.136Z,80.13
2023-02-09T01:22:38.111Z,80.13
2023-02-09T01:23:38.161Z,80.13
2023-02-09T01:24:38.124Z,80.13
2023-02-09T01:25:38.082Z,80.13
2023-02-09T01:26:38.079Z,80.16
2023-02-09T01:27:38.144Z,80.16
2023-02-09T01:28:38.047Z,80.16
2023-02-09T01:29:38.094Z,80.16
2023-02-09T01:30:38.054Z,80.16
2023-02-09T01:31:38.127Z,80.27
2023-02-09T01:32:37.998Z,80.27
2023-02-09T01:33:37.999Z,80.37
2023-02-09T01:34:38.056Z,80.37
2023-02-09T01:35:37.947Z,80.37
2023-02-09T01:36:37.917Z,80.37
2023-02-09T01:37:37.920Z,80.37
2023-02-09T01:38:37.896Z,80.27
2023-02-09T01:39:37.926Z,80.27
2023-02-09T01:40:37.877Z,80.27
2023-02-09T01:41:37.857Z,80.27
2023-02-09T01:42:37.865Z,80.27
2023-02-09T01:43:37.965Z,80.16
2023-02-09T01:44:37.838Z,80.16
2023-02-09T01:45:37.816Z,80.27
2023-02-09T01:46:37.869Z,80.27
2023-02-09T01:47:37.807Z,80.30
2023-02-09T01:48:37.776Z,80.20
2023-02-09T01:49:37.786Z,80.20
2023-02-09T01:50:37.757Z,80.30
2023-02-09T01:51:37.751Z,80.30
2023-02-09T01:52:37.729Z,80.30
2023-02-09T01:53:37.725Z,80.30
2023-02-09T01:54:37.720Z,80.30
2023-02-09T01:55:37.696Z,80.30
2023-02-09T01:56:37.686Z,80.30
2023-02-09T01:57:37.697Z,80.30
2023-02-09T01:58:37.653Z,80.30
2023-02-09T01:59:37.654Z,80.30
2023-02-09T02:00:37.635Z,80.30
2023-02-09T02:01:37.632Z,80.41
2023-02-09T02:02:37.639Z,80.41
2023-02-09T02:03:37.613Z,80.41
2023-02-09T02:04:37.599Z,80.52
2023-02-09T02:05:37.577Z,80.41
2023-02-09T02:06:37.575Z,80.41
2023-02-09T02:07:37.552Z,80.44
2023-02-09T02:08:37.531Z,80.44
2023-02-09T02:09:37.541Z,80.44
2023-02-09T02:10:37.517Z,80.44
2023-02-09T02:11:37.498Z,80.44
2023-02-09T02:12:37.478Z,80.44
2023-02-09T02:13:37.484Z,80.44
2023-02-09T02:14:37.466Z,80.55
2023-02-09T02:15:37.530Z,80.55
2023-02-09T02:16:37.432Z,80.66
2023-02-09T02:17:37.416Z,80.66
2023-02-09T02:18:37.404Z,80.66
2023-02-09T02:19:37.406Z,80.66
2023-02-09T02:20:37.375Z,80.66
2023-02-09T02:21:37.373Z,80.66
2023-02-09T02:22:37.352Z,80.66
2023-02-09T02:23:37.350Z,80.76
2023-02-09T02:24:37.335Z,80.76
2023-02-09T02:25:37.321Z,80.76
2023-02-09T02:26:37.312Z,80.76
2023-02-09T02:27:37.306Z,80.76
2023-02-09T02:28:37.280Z,80.76
2023-02-09T02:29:37.281Z,80.76
2023-02-09T02:30:37.335Z,80.76
2023-02-09T02:31:37.341Z,80.76
2023-02-09T02:32:37.228Z,80.76
2023-02-09T02:33:37.226Z,80.76
2023-02-09T02:34:37.257Z,80.87
2023-02-09T02:35:37.198Z,80.87
2023-02-09T02:36:37.177Z,80.87
2023-02-09T02:37:37.196Z,80.87
2023-02-09T02:38:37.164Z,80.87
2023-02-09T02:39:37.163Z,80.87
2023-02-09T02:40:37.142Z,80.87
2023-02-09T02:41:37.126Z,81.01
2023-02-09T02:42:37.111Z,81.01
2023-02-09T02:43:37.094Z,80.91
2023-02-09T02:44:37.095Z,80.91
2023-02-09T02:45:37.085Z,80.91
2023-02-09T02:46:37.185Z,81.01
2023-02-09T02:47:37.065Z,81.01
2023-02-09T02:48:37.028Z,81.01
2023-02-09T02:49:37.029Z,81.01
2023-02-09T02:50:37.083Z,81.01
2023-02-09T02:51:37.002Z,81.01
2023-02-09T02:52:36.995Z,81.12
2023-02-09T02:53:36.986Z,81.12
2023-02-09T02:54:36.981Z,81.12
2023-02-09T02:55:36.956Z,81.23
2023-02-09T02:56:36.936Z,81.23
2023-02-09T02:57:36.927Z,81.23
2023-02-09T02:58:36.934Z,81.23
2023-02-09T02:59:36.927Z,81.33
2023-02-09T03:00:36.888Z,81.33
2023-02-09T03:01:36.906Z,81.33
2023-02-09T03:02:36.871Z,81.33
2023-02-09T03:03:36.855Z,81.43
2023-02-09T03:04:36.855Z,81.43
2023-02-09T03:05:36.836Z,81.43
2023-02-09T03:06:36.813Z,81.54
2023-02-09T03:07:36.815Z,81.54
2023-02-09T03:08:36.792Z,81.54
2023-02-09T03:09:36.787Z,81.54
2023-02-09T03:10:36.766Z,81.54
2023-02-09T03:11:36.812Z,81.54
2023-02-09T03:12:36.740Z,81.54
2023-02-09T03:13:36.723Z,81.54
2023-02-09T03:14:36.733Z,81.54
2023-02-09T03:15:36.702Z,81.65
2023-02-09T03:16:36.702Z,81.65
2023-02-09T03:17:36.672Z,81.65
2023-02-09T03:18:36.683Z,81.65
2023-02-09T03:19:36.677Z,81.65
2023-02-09T03:20:36.630Z,81.65
2023-02-09T03:21:36.627Z,81.65
2023-02-09T03:22:36.610Z,81.65
2023-02-09T03:23:36.611Z,81.75
2023-02-09T03:24:36.607Z,81.75
2023-02-09T03:25:36.579Z,81.75
2023-02-09T03:26:36.563Z,81.75
2023-02-09T03:27:36.569Z,81.75
2023-02-09T03:28:36.538Z,81.65
2023-02-09T03:29:36.530Z,81.65
2023-02-09T03:30:36.613Z,81.65
2023-02-09T03:31:36.521Z,81.65
2023-02-09T03:32:36.487Z,81.65
2023-02-09T03:33:36.498Z,81.65
2023-02-09T03:34:36.465Z,81.65
2023-02-09T03:35:36.507Z,81.65
2023-02-09T03:36:36.448Z,81.54
2023-02-09T03:37:36.429Z,81.47
2023-02-09T03:38:36.428Z,81.58
2023-02-09T03:39:36.433Z,81.47
2023-02-09T03:40:36.393Z,81.58
2023-02-09T03:41:36.384Z,81.68
2023-02-09T03:42:36.372Z,81.58
2023-02-09T03:43:36.355Z,81.58
2023-02-09T03:44:36.342Z,81.58
2023-02-09T03:45:36.344Z,81.47
2023-02-09T03:46:36.379Z,81.47
2023-02-09T03:47:36.306Z,81.47
2023-02-09T03:48:36.294Z,81.47
2023-02-09T03:49:36.282Z,81.47
2023-02-09T03:50:36.274Z,81.47
2023-02-09T03:51:36.260Z,81.47
2023-02-09T03:52:36.242Z,81.37
2023-02-09T03:53:36.232Z,81.47
2023-02-09T03:54:36.211Z,81.47
2023-02-09T03:55:36.258Z,81.51
2023-02-09T03:56:36.189Z,81.51
2023-02-09T03:57:36.180Z,81.51
2023-02-09T03:58:36.166Z,81.51
2023-02-09T03:59:36.155Z,81.51
2023-02-09T04:00:36.182Z,81.51
2023-02-09T04:01:36.138Z,81.51
2023-02-09T04:02:36.183Z,81.62
2023-02-09T04:03:36.111Z,81.62
2023-02-09T04:04:36.101Z,81.62
2023-02-09T04:05:36.093Z,81.62
2023-02-09T04:06:36.067Z,81.62
2023-02-09T04:07:36.059Z,81.62
2023-02-09T04:08:36.050Z,81.62
2023-02-09T04:09:36.030Z,81.62
2023-02-09T04:10:36.030Z,81.62
2023-02-09T04:11:36.001Z,81.51
2023-02-09T04:12:36.010Z,81.51
2023-02-09T04:13:35.979Z,81.51
2023-02-09T04:14:35.990Z,81.40
2023-02-09T04:15:35.969Z,81.40
2023-02-09T04:16:35.983Z,81.40
2023-02-09T04:17:35.932Z,81.40
2023-02-09T04:18:35.921Z,81.51
2023-02-09T04:19:35.913Z,81.51
2023-02-09T04:20:35.907Z,81.54
2023-02-09T04:21:35.887Z,81.51
2023-02-09T04:22:35.875Z,81.51
2023-02-09T04:23:35.868Z,81.65
2023-02-09T04:24:35.856Z,81.54
2023-02-09T04:25:35.844Z,81.54
2023-02-09T04:26:35.843Z,81.65
2023-02-09T04:27:35.816Z,81.65
2023-02-09T04:28:35.841Z,81.65
2023-02-09T04:29:35.804Z,81.65
2023-02-09T04:30:35.837Z,81.65
2023-02-09T04:31:35.854Z,81.54
2023-02-09T04:32:35.755Z,81.54
2023-02-09T04:33:35.735Z,81.54
2023-02-09T04:34:35.726Z,81.54
2023-02-09T04:35:35.727Z,81.54
2023-02-09T04:36:35.705Z,81.54
2023-02-09T04:37:35.694Z,81.54
2023-02-09T04:38:35.687Z,81.65
2023-02-09T04:39:35.665Z,81.65
2023-02-09T04:40:35.663Z,81.65
2023-02-09T04:41:35.645Z,81.65
2023-02-09T04:42:35.634Z,81.65
2023-02-09T04:43:35.625Z,81.54
2023-02-09T04:44:35.614Z,81.54
2023-02-09T04:45:35.636Z,81.54
2023-02-09T04:46:35.587Z,81.48
2023-02-09T04:47:35.576Z,81.48
2023-02-09T04:48:35.563Z,81.37
2023-02-09T04:49:35.546Z,81.48
2023-02-09T04:50:35.536Z,81.48
2023-02-09T04:51:35.534Z,81.58
2023-02-09T04:52:35.515Z,81.58
2023-02-09T04:53:35.490Z,81.58
2023-02-09T04:54:35.489Z,81.58
2023-02-09T04:55:35.473Z,81.69
2023-02-09T04:56:35.471Z,81.69
2023-02-09T04:57:35.450Z,81.69
2023-02-09T04:58:35.441Z,81.79
2023-02-09T04:59:35.429Z,81.79
2023-02-09T05:00:35.419Z,81.79
2023-02-09T05:01:35.490Z,81.79
2023-02-09T05:02:35.390Z,81.79
2023-02-09T05:03:35.422Z,81.79
2023-02-09T05:04:35.377Z,81.79
2023-02-09T05:05:35.391Z,81.79
2023-02-09T05:06:35.347Z,81.79
2023-02-09T05:07:35.319Z,81.83
2023-02-09T05:08:35.316Z,81.79
2023-02-09T05:09:35.305Z,81.83
2023-02-09T05:10:35.286Z,81.79
2023-02-09T05:11:35.287Z,81.83
2023-02-09T05:12:35.281Z,81.93
2023-02-09T05:13:35.253Z,81.93
2023-02-09T05:14:35.252Z,81.93
2023-02-09T05:15:35.229Z,82.04
2023-02-09T05:16:35.995Z,82.04
2023-02-09T05:17:35.204Z,82.04
2023-02-09T05:18:35.195Z,82.04
2023-02-09T05:19:35.176Z,82.15
2023-02-09T05:20:35.173Z,82.15
2023-02-09T05:21:35.162Z,82.04
2023-02-09T05:22:35.155Z,82.15
2023-02-09T05:23:35.143Z,82.15
2023-02-09T05:24:35.127Z,82.04
2023-02-09T05:25:35.102Z,82.04
2023-02-09T05:26:35.110Z,82.04
2023-02-09T05:27:35.086Z,82.04
2023-02-09T05:28:35.073Z,82.04
2023-02-09T05:29:35.059Z,82.04
2023-02-09T05:30:35.042Z,82.04
2023-02-09T05:31:35.181Z,82.04
2023-02-09T05:32:35.028Z,82.04
2023-02-09T05:33:35.010Z,82.15
2023-02-09T05:34:34.998Z,82.15
2023-02-09T05:35:34.991Z,82.15
2023-02-09T05:36:34.986Z,82.15
2023-02-09T05:37:34.978Z,82.15
2023-02-09T05:38:34.950Z,82.15
2023-02-09T05:39:34.934Z,82.25
2023-02-09T05:40:34.918Z,82.25
2023-02-09T05:41:34.923Z,82.25
2023-02-09T05:42:34.897Z,82.36
2023-02-09T05:43:34.908Z,82.36
2023-02-09T05:44:34.886Z,82.36
2023-02-09T05:45:34.894Z,82.36
2023-02-09T05:46:34.860Z,82.36
2023-02-09T05:47:34.834Z,82.36
2023-02-09T05:48:34.835Z,82.36
2023-02-09T05:49:34.839Z,82.46
2023-02-09T05:50:34.795Z,82.36
2023-02-09T05:51:34.789Z,82.46
2023-02-09T05:52:34.793Z,82.46
2023-02-09T05:53:34.781Z,82.46
2023-02-09T05:54:34.761Z,82.46
2023-02-09T05:55:34.739Z,82.46
2023-02-09T05:56:34.740Z,82.36
2023-02-09T05:57:34.709Z,82.46
2023-02-09T05:58:34.702Z,82.46
2023-02-09T05:59:34.704Z,82.46
2023-02-09T06:00:34.677Z,82.46
2023-02-09T06:01:34.670Z,82.57
2023-02-09T06:02:34.718Z,82.46
2023-02-09T06:03:34.675Z,82.57
2023-02-09T06:04:34.627Z,82.57
2023-02-09T06:05:34.630Z,82.57
2023-02-09T06:06:34.615Z,82.68
2023-02-09T06:07:34.614Z,82.68
2023-02-09T06:08:34.573Z,82.68
2023-02-09T06:09:34.595Z,82.68
2023-02-09T06:10:34.562Z,82.68
2023-02-09T06:11:34.561Z,82.68
2023-02-09T06:12:34.546Z,82.78
2023-02-09T06:13:34.527Z,82.78
2023-02-09T06:14:34.541Z,82.78
2023-02-09T06:15:34.517Z,82.78
2023-02-09T06:16:34.492Z,82.78
2023-02-09T06:17:34.459Z,82.68
2023-02-09T06:18:34.466Z,82.68
2023-02-09T06:19:34.439Z,82.78
2023-02-09T06:20:34.438Z,82.68
2023-02-09T06:21:34.438Z,82.78
2023-02-09T06:22:34.434Z,82.78
2023-02-09T06:23:35.341Z,82.78
2023-02-09T06:24:34.394Z,82.78
2023-02-09T06:25:34.384Z,82.78
2023-02-09T06:26:34.369Z,82.89
2023-02-09T06:27:34.364Z,82.78
2023-02-09T06:28:34.339Z,82.78
2023-02-09T06:29:34.306Z,82.78
2023-02-09T06:30:34.307Z,82.78
2023-02-09T06:31:34.384Z,82.78
2023-02-09T06:32:34.288Z,82.78
2023-02-09T06:33:34.259Z,82.78
2023-02-09T06:34:34.279Z,82.78
2023-02-09T06:35:34.246Z,82.78
2023-02-09T06:36:34.256Z,82.78
2023-02-09T06:37:34.212Z,82.68
2023-02-09T06:38:34.215Z,82.57
2023-02-09T06:39:34.216Z,82.57
2023-02-09T06:40:34.310Z,82.57
2023-02-09T06:41:34.177Z,82.57
2023-02-09T06:42:34.169Z,82.57
2023-02-09T06:43:34.154Z,82.57
2023-02-09T06:44:34.136Z,82.57
2023-02-09T06:45:34.114Z,82.57
2023-02-09T06:46:34.230Z,82.46
2023-02-09T06:47:34.094Z,82.46
2023-02-09T06:48:34.098Z,82.57
2023-02-09T06:49:34.062Z,82.57
2023-02-09T06:50:34.067Z,82.57
2023-02-09T06:51:34.052Z,82.57
2023-02-09T06:52:34.044Z,82.68
2023-02-09T06:53:34.023Z,82.68
2023-02-09T06:54:34.172Z,82.68
2023-02-09T06:55:34.001Z,82.78
2023-02-09T06:56:34.429Z,82.78
2023-02-09T06:57:34.302Z,82.78
2023-02-09T06:58:33.961Z,82.78
2023-02-09T06:59:33.953Z,82.78
2023-02-09T07:00:33.929Z,82.78
2023-02-09T07:01:33.991Z,82.78
2023-02-09T07:02:33.962Z,82.78
2023-02-09T07:03:33.905Z,82.89
2023-02-09T07:04:33.883Z,82.89
2023-02-09T07:05:33.868Z,82.89
2023-02-09T07:06:33.888Z,82.89
2023-02-09T07:07:33.850Z,83.00
2023-02-09T07:08:33.838Z,83.00
2023-02-09T07:09:33.825Z,83.10
2023-02-09T07:10:33.826Z,83.10
2023-02-09T07:11:33.817Z,83.21
2023-02-09T07:12:33.791Z,83.31
2023-02-09T07:13:33.777Z,83.31
2023-02-09T07:14:33.769Z,83.28
2023-02-09T07:15:33.756Z,83.28
2023-02-09T07:16:33.759Z,83.28
2023-02-09T07:17:33.740Z,83.28
2023-02-09T07:18:33.727Z,83.28
2023-02-09T07:19:33.698Z,83.38
2023-02-09T07:20:33.709Z,83.38
2023-02-09T07:21:33.686Z,83.38
2023-02-09T07:22:33.666Z,83.38
2023-02-09T07:23:33.693Z,83.49
2023-02-09T07:24:33.678Z,83.45
2023-02-09T07:25:33.670Z,83.56
2023-02-09T07:26:33.637Z,83.66
2023-02-09T07:27:33.614Z,83.66
2023-02-09T07:28:33.690Z,83.77
2023-02-09T07:29:33.581Z,83.87
2023-02-09T07:30:33.671Z,83.84
2023-02-09T07:31:33.664Z,83.84
2023-02-09T07:32:33.560Z,83.94
2023-02-09T07:33:33.529Z,83.94
2023-02-09T07:34:33.520Z,84.01
2023-02-09T07:35:33.533Z,84.01
2023-02-09T07:36:33.521Z,84.01
2023-02-09T07:37:33.481Z,83.97
2023-02-09T07:38:33.478Z,84.08
2023-02-09T07:39:33.476Z,84.08
2023-02-09T07:40:33.446Z,84.08
2023-02-09T07:41:33.446Z,84.04
2023-02-09T07:42:35.870Z,84.04
2023-02-09T07:43:33.407Z,84.04
2023-02-09T07:44:33.404Z,84.04
2023-02-09T07:45:33.384Z,84.11
2023-02-09T07:46:33.417Z,84.22
2023-02-09T07:47:33.370Z,84.32
2023-02-09T07:48:33.343Z,84.42
2023-02-09T07:49:33.334Z,84.49
2023-02-09T07:50:33.311Z,84.60
2023-02-09T07:51:34.339Z,84.70
2023-02-09T07:52:33.331Z,84.81
2023-02-09T07:53:33.281Z,84.98
2023-02-09T07:54:33.281Z,84.98
2023-02-09T07:55:33.240Z,85.19
2023-02-09T07:56:33.247Z,85.30
2023-02-09T07:57:33.245Z,85.41
2023-02-09T07:58:33.208Z,85.47
2023-02-09T07:59:33.258Z,85.58
2023-02-09T08:00:33.187Z,85.68
2023-02-09T08:01:33.178Z,85.89
2023-02-09T08:02:33.218Z,86.07
2023-02-09T08:03:33.154Z,86.17
2023-02-09T08:04:33.138Z,86.28
2023-02-09T08:05:33.135Z,86.38
2023-02-09T08:06:41.439Z,86.45
2023-02-09T08:07:34.106Z,86.55
2023-02-09T08:08:33.085Z,86.66
2023-02-09T08:09:33.074Z,86.77
2023-02-09T08:10:33.067Z,86.77
2023-02-09T08:11:33.046Z,86.77
2023-02-09T08:12:33.058Z,86.72
2023-02-09T08:13:33.031Z,86.72
2023-02-09T08:14:33.015Z,86.72
2023-02-09T08:15:32.994Z,86.72
2023-02-09T08:16:33.076Z,86.72
2023-02-09T08:17:33.170Z,86.79
2023-02-09T08:18:32.991Z,86.79
2023-02-09T08:19:36.329Z,86.79
2023-02-09T08:20:33.393Z,86.79
2023-02-09T08:21:32.939Z,86.79
2023-02-09T08:22:32.936Z,86.79
2023-02-09T08:23:32.920Z,86.65
2023-02-09T08:24:32.907Z,86.76
2023-02-09T08:25:34.713Z,86.76
2023-02-09T08:26:32.868Z,86.86
2023-02-09T08:27:32.877Z,86.82
2023-02-09T08:28:43.522Z,86.82
2023-02-09T08:29:33.853Z,86.93
2023-02-09T08:30:32.825Z,87.03
2023-02-09T08:31:32.922Z,87.13
2023-02-09T08:32:32.822Z,87.10
2023-02-09T08:33:32.841Z,87.20
2023-02-09T08:34:32.804Z,87.30
2023-02-09T08:35:32.770Z,87.30
2023-02-09T08:36:32.736Z,87.48
2023-02-09T08:37:32.751Z,87.58
2023-02-09T08:38:32.729Z,87.68
2023-02-09T08:39:32.709Z,87.75
2023-02-09T08:40:32.732Z,87.85
2023-02-09T08:41:32.681Z,87.85
2023-02-09T08:42:32.680Z,87.92
2023-02-09T08:43:32.666Z,88.02
2023-02-09T08:44:32.648Z,88.02
2023-02-09T08:45:32.738Z,88.02
2023-02-09T08:46:32.767Z,88.02
2023-02-09T08:47:32.610Z,87.99
2023-02-09T08:48:33.747Z,87.99
2023-02-09T08:49:32.593Z,87.99
2023-02-09T08:50:32.598Z,87.88
2023-02-09T08:51:32.568Z,87.77
2023-02-09T08:52:32.542Z,87.77
2023-02-09T08:53:32.532Z,87.67
2023-02-09T08:54:32.517Z,87.67
2023-02-09T08:55:32.530Z,87.63
2023-02-09T08:56:32.481Z,87.63
2023-02-09T08:57:43.636Z,87.63
2023-02-09T08:58:33.496Z,87.63
2023-02-09T08:59:32.457Z,87.63
2023-02-09T09:00:32.453Z,87.59
2023-02-09T09:01:32.467Z,87.59
2023-02-09T09:02:32.431Z,87.59
2023-02-09T09:03:32.448Z,87.70
2023-02-09T09:04:32.410Z,87.66
2023-02-09T09:05:32.388Z,87.66
2023-02-09T09:06:33.232Z,87.76
2023-02-09T09:07:32.397Z,87.87
2023-02-09T09:08:32.359Z,87.83
2023-02-09T09:09:32.350Z,87.83
2023-02-09T09:10:32.326Z,87.68
2023-02-09T09:11:32.302Z,87.68
2023-02-09T09:12:32.319Z,87.64
2023-02-09T09:13:32.299Z,87.64
2023-02-09T09:14:32.277Z,87.54
2023-02-09T09:15:32.270Z,87.50
2023-02-09T09:16:32.276Z,87.60
2023-02-09T09:17:32.236Z,87.60
2023-02-09T09:18:32.214Z,87.56
2023-02-09T09:19:32.196Z,87.46
2023-02-09T09:20:32.182Z,87.46
2023-02-09T09:21:32.206Z,87.10
2023-02-09T09:22:32.216Z,86.90
2023-02-09T09:23:32.171Z,86.90
2023-02-09T09:24:32.138Z,86.96
2023-02-09T09:25:32.144Z,86.96
2023-02-09T09:26:32.127Z,87.07
2023-02-09T09:27:32.126Z,86.96
2023-02-09T09:28:32.204Z,86.82
2023-02-09T09:29:32.094Z,86.71
2023-02-09T09:30:32.073Z,86.71
2023-02-09T09:31:32.154Z,86.67
2023-02-09T09:32:32.179Z,86.46
2023-02-09T09:33:32.025Z,86.25
2023-02-09T09:34:32.025Z,86.00
2023-02-09T09:35:32.018Z,85.69
2023-02-09T09:36:32.000Z,85.49
2023-02-09T09:37:32.002Z,85.44
2023-02-09T09:38:32.056Z,85.44
2023-02-09T09:39:31.962Z,85.34
2023-02-09T09:40:31.943Z,85.24
2023-02-09T09:41:31.937Z,85.20
2023-02-09T09:42:31.925Z,85.20
2023-02-09T09:43:31.895Z,84.99
2023-02-09T09:44:31.903Z,84.99
2023-02-09T09:45:31.895Z,84.84
2023-02-09T09:46:31.949Z,84.74
2023-02-09T09:47:31.860Z,84.74
2023-02-09T09:48:31.829Z,84.64
2023-02-09T09:49:31.820Z,84.43
2023-02-09T09:50:31.793Z,84.22
2023-02-09T09:51:31.783Z,83.97
2023-02-09T09:52:31.838Z,83.76
2023-02-09T09:53:31.799Z,83.56
2023-02-09T09:54:31.771Z,83.35
2023-02-09T09:55:31.780Z,83.35
2023-02-09T09:56:31.735Z,83.25
2023-02-09T09:57:31.765Z,83.31
2023-02-09T09:58:31.692Z,83.31
2023-02-09T09:59:31.720Z,83.42
2023-02-09T10:00:31.681Z,83.52
2023-02-09T10:01:31.746Z,83.42
2023-02-09T10:02:31.683Z,83.17
2023-02-09T10:03:31.656Z,83.27
2023-02-09T10:04:31.689Z,82.96
2023-02-09T10:05:31.623Z,82.65
2023-02-09T10:06:33.077Z,82.40
2023-02-09T10:07:31.614Z,82.30
2023-02-09T10:08:31.589Z,82.20
2023-02-09T10:09:31.587Z,82.15
2023-02-09T10:10:31.596Z,82.05
2023-02-09T10:11:31.536Z,81.84
2023-02-09T10:12:31.565Z,81.53
2023-02-09T10:13:31.606Z,81.49
2023-02-09T10:14:31.525Z,81.49
2023-02-09T10:15:31.495Z,81.49
2023-02-09T10:16:31.516Z,81.49
2023-02-09T10:17:31.480Z,81.46
2023-02-09T10:18:31.453Z,81.35
2023-02-09T10:19:31.434Z,81.15
2023-02-09T10:20:31.429Z,81.04
2023-02-09T10:21:31.453Z,80.90
2023-02-09T10:22:31.401Z,80.69
2023-02-09T10:23:31.400Z,80.49
2023-02-09T10:24:31.440Z,80.18
2023-02-09T10:25:31.400Z,79.86
2023-02-09T10:26:31.429Z,79.55
2023-02-09T10:27:31.375Z,79.51
2023-02-09T10:28:31.463Z,79.41
2023-02-09T10:29:31.326Z,79.20
2023-02-09T10:30:31.466Z,78.89
2023-02-09T10:31:31.460Z,78.68
2023-02-09T10:32:31.276Z,78.58
2023-02-09T10:33:31.308Z,78.47
2023-02-09T10:34:31.290Z,78.47
2023-02-09T10:35:31.314Z,78.37
2023-02-09T10:36:31.212Z,78.23
2023-02-09T10:37:31.262Z,78.23
2023-02-09T10:38:33.165Z,78.13
2023-02-09T10:39:31.168Z,78.03
2023-02-09T10:40:31.165Z,77.92
2023-02-09T10:41:31.154Z,77.82
2023-02-09T10:42:31.139Z,77.61
2023-02-09T10:43:31.142Z,77.51
2023-02-09T10:44:31.096Z,77.51
2023-02-09T10:45:31.095Z,77.40
2023-02-09T10:46:31.130Z,77.51
2023-02-09T10:47:31.100Z,77.61
2023-02-09T10:48:31.065Z,77.61
2023-02-09T10:49:31.045Z,77.61
2023-02-09T10:50:31.022Z,77.40
2023-02-09T10:51:31.030Z,77.20
2023-02-09T10:52:30.998Z,77.16
2023-02-09T10:53:31.017Z,77.26
2023-02-09T10:54:31.007Z,77.16
2023-02-09T10:55:30.970Z,77.16
2023-02-09T10:56:30.959Z,77.16
2023-02-09T10:57:30.953Z,77.16
2023-02-09T10:58:30.952Z,76.95
2023-02-09T10:59:30.934Z,76.85
2023-02-09T11:00:30.923Z,76.75
2023-02-09T11:01:30.971Z,76.61
2023-02-09T11:02:30.876Z,76.50
2023-02-09T11:03:30.903Z,76.40
2023-02-09T11:04:30.880Z,76.50
2023-02-09T11:05:30.858Z,76.50
2023-02-09T11:06:30.822Z,76.61
2023-02-09T11:07:31.959Z,76.46
2023-02-09T11:08:30.805Z,76.26
2023-02-09T11:09:30.796Z,76.26
2023-02-09T11:10:30.769Z,75.53
2023-02-09T11:11:30.763Z,75.22
2023-02-09T11:12:30.751Z,75.50
2023-02-09T11:13:32.442Z,75.50
2023-02-09T11:14:30.725Z,75.50
2023-02-09T11:15:30.744Z,75.46
2023-02-09T11:16:30.702Z,75.36
2023-02-09T11:17:30.751Z,75.26
2023-02-09T11:18:31.445Z,75.26
2023-02-09T11:19:30.673Z,75.05
2023-02-09T11:20:30.676Z,74.74
2023-02-09T11:21:30.631Z,74.74
2023-02-09T11:22:30.656Z,74.60
2023-02-09T11:23:30.621Z,74.29
2023-02-09T11:24:30.604Z,74.29
2023-02-09T11:25:30.597Z,74.08
2023-02-09T11:26:30.583Z,73.98
2023-02-09T11:27:30.561Z,74.08
2023-02-09T11:28:30.613Z,73.88
2023-02-09T11:29:30.556Z,73.88
2023-02-09T11:30:30.541Z,73.88
2023-02-09T11:31:30.626Z,73.98
2023-02-09T11:32:30.600Z,73.98
2023-02-09T11:33:30.499Z,73.98
2023-02-09T11:34:30.489Z,73.84
2023-02-09T11:35:30.460Z,73.74
2023-02-09T11:36:31.066Z,73.54
2023-02-09T11:37:30.440Z,73.43
2023-02-09T11:38:30.428Z,73.22
2023-02-09T11:39:30.420Z,73.43
2023-02-09T11:40:30.398Z,73.54
2023-02-09T11:41:30.389Z,73.71
2023-02-09T11:42:30.371Z,73.71
2023-02-09T11:43:30.378Z,73.60
2023-02-09T11:44:30.345Z,73.50
2023-02-09T11:45:30.330Z,73.50
2023-02-09T11:46:30.368Z,73.50
2023-02-09T11:47:30.307Z,72.67
2023-02-09T11:48:30.313Z,72.64
2023-02-09T11:49:30.307Z,71.19
2023-02-09T11:50:30.261Z,71.40
2023-02-09T11:51:31.823Z,72.02
2023-02-09T11:52:30.235Z,72.22
2023-02-09T11:53:30.242Z,72.09
2023-02-09T11:54:30.226Z,71.57
2023-02-09T11:55:31.669Z,72.09
2023-02-09T11:56:30.205Z,71.78
2023-02-09T11:57:30.188Z,71.57
2023-02-09T11:58:30.170Z,71.47
2023-02-09T11:59:30.154Z,71.54
2023-02-09T12:00:30.135Z,71.44
2023-02-09T12:01:30.116Z,71.33
2023-02-09T12:02:30.134Z,71.44
2023-02-09T12:03:30.106Z,71.85
2023-02-09T12:04:30.110Z,71.75
2023-02-09T12:05:30.090Z,71.54
2023-02-09T12:06:30.086Z,71.30
2023-02-09T12:07:32.727Z,71.09
2023-02-09T12:08:30.042Z,71.09
2023-02-09T12:09:30.037Z,71.20
2023-02-09T12:10:30.004Z,71.20
2023-02-09T12:11:29.992Z,70.99
2023-02-09T12:12:29.996Z,70.89
2023-02-09T12:13:29.985Z,71.09
2023-02-09T12:14:29.972Z,70.44
2023-02-09T12:15:29.959Z,69.82
2023-02-09T12:16:29.994Z,70.23
2023-02-09T12:17:29.919Z,70.13
2023-02-09T12:18:29.918Z,70.37
2023-02-09T12:19:29.892Z,70.27
2023-02-09T12:20:29.878Z,70.06
2023-02-09T12:21:29.864Z,69.24
2023-02-09T12:22:29.859Z,69.34
2023-02-09T12:23:29.869Z,69.44
2023-02-09T12:24:29.831Z,69.31
2023-02-09T12:25:29.813Z,69.41
2023-02-09T12:26:29.801Z,69.51
2023-02-09T12:27:29.787Z,69.72
2023-02-09T12:28:29.870Z,69.72
2023-02-09T12:29:29.775Z,69.62
2023-02-09T12:30:29.757Z,69.51
2023-02-09T12:31:29.816Z,69.41
2023-02-09T12:32:29.736Z,69.20
2023-02-09T12:33:29.719Z,69.17
2023-02-09T12:34:29.724Z,68.96
2023-02-09T12:35:29.674Z,68.76
2023-02-09T12:36:29.681Z,68.35
2023-02-09T12:37:29.644Z,68.14
2023-02-09T12:38:29.636Z,68.55
2023-02-09T12:39:29.651Z,68.55
2023-02-09T12:40:29.635Z,68.55
2023-02-09T12:41:29.602Z,68.35
2023-02-09T12:42:29.723Z,68.52
2023-02-09T12:43:29.663Z,68.83
2023-02-09T12:44:29.634Z,68.73
2023-02-09T12:45:29.624Z,68.62
2023-02-09T12:46:29.745Z,68.83
2023-02-09T12:47:29.544Z,68.93
2023-02-09T12:48:29.536Z,68.83
2023-02-09T12:49:29.502Z,68.52
2023-02-09T12:50:29.556Z,68.21
2023-02-09T12:51:29.492Z,68.21
2023-02-09T12:52:29.470Z,68.21